Time;durP1;ratioP1;P1;durP2;ratioP2;P2;SDS_P1;SDS_P2;PMS_P1;PMS_P2;Temp;Humidity;BMP_temperature;BMP_pressure;BME280_temperature;BME280_humidity;BME280_pressure;Samples;Min_cycle;Max_cycle;Signal;HPM_P1;HPM_P2
2022/07/03 00:00:17;;;;;;;2.67;0.95;;;20.30;78.40;;;;;;5016004;28;20025;-74
2022/07/03 00:02:43;;;;;;;2.00;0.95;;;20.30;78.60;;;;;;4999658;28;20037;-74
2022/07/03 00:05:09;;;;;;;2.08;0.90;;;20.20;78.90;;;;;;5015798;28;20390;-74
2022/07/03 00:07:36;;;;;;;5.28;0.82;;;20.20;79.10;;;;;;5032348;28;20057;-75
2022/07/03 00:10:02;;;;;;;2.10;0.80;;;20.20;79.00;;;;;;5032267;28;20017;-75
2022/07/03 00:12:28;;;;;;;3.55;0.90;;;20.20;78.90;;;;;;5015961;28;20036;-75
2022/07/03 00:14:54;;;;;;;5.22;1.13;;;20.10;78.90;;;;;;5015869;28;20072;-76
2022/07/03 00:17:19;;;;;;;2.08;0.60;;;20.10;79.10;;;;;;5032239;28;20103;-76
2022/07/03 00:19:45;;;;;;;2.22;0.75;;;20.10;79.30;;;;;;5031988;28;20037;-76
2022/07/03 00:22:14;;;;;;;2.88;0.80;;;20.10;80.10;;;;;;5015551;28;20044;-75
2022/07/03 00:24:49;;;;;;;4.50;1.23;;;20.00;79.60;;;;;;5031830;28;20057;-76
2022/07/03 00:27:17;;;;;;;5.38;2.10;;;20.00;79.80;;;;;;5031632;28;20028;-75
2022/07/03 00:29:44;;;;;;;5.60;1.95;;;20.00;79.90;;;;;;5032209;28;20032;-75
2022/07/03 00:32:17;;;;;;;4.53;1.88;;;19.90;80.00;;;;;;5031964;28;20017;-75
2022/07/03 00:34:43;;;;;;;;;;;19.90;80.20;;;;;;5032427;28;20466;-75
2022/07/03 00:37:10;;;;;;;3.13;1.38;;;19.90;80.20;;;;;;5015416;28;20015;-76
2022/07/03 00:39:41;;;;;;;3.47;1.27;;;19.90;80.00;;;;;;5032169;28;20021;-75
2022/07/03 00:42:08;;;;;;;3.53;1.17;;;19.90;80.20;;;;;;5031781;28;20025;-75
2022/07/03 00:44:46;;;;;;;5.60;1.20;;;19.80;80.20;;;;;;5033002;28;20033;-75
2022/07/03 00:47:13;;;;;;;2.78;0.77;;;19.80;80.40;;;;;;5033207;28;20029;-75
2022/07/03 00:49:40;;;;;;;2.63;0.80;;;19.70;80.30;;;;;;4999149;28;20052;-76
2022/07/03 00:52:08;;;;;;;7.35;0.90;;;19.70;80.50;;;;;;5033079;28;20029;-75
2022/07/03 00:54:35;;;;;;;3.10;1.27;;;19.60;80.60;;;;;;5015598;28;20473;-76
2022/07/03 00:57:02;;;;;;;4.53;1.65;;;19.60;80.70;;;;;;5032984;28;20033;-75
2022/07/03 00:59:28;;;;;;;4.85;1.92;;;19.60;81.00;;;;;;5032974;28;20034;-75
2022/07/03 01:02:03;;;;;;;6.40;1.80;;;19.50;81.10;;;;;;5031602;28;20029;-76
2022/07/03 01:04:36;;;;;;;3.33;1.40;;;19.50;81.30;;;;;;5032824;28;20032;-76
2022/07/03 01:07:18;;;;;;;3.20;1.45;;;19.50;81.40;;;;;;5031657;28;20116;-76
2022/07/03 01:10:05;;;;;;;6.47;1.60;;;19.40;81.80;;;;;;5032912;28;20466;-76
2022/07/03 01:12:55;;;;;;;4.05;1.27;;;19.30;80.80;;;;;;5032884;28;20026;-76
2022/07/03 01:15:43;;;;;;;3.53;1.40;;;19.30;80.60;;;;;;5032741;28;20029;-76
2022/07/03 01:19:03;;;;;;;2.85;1.23;;;19.30;80.40;;;;;;5030707;28;20025;-76
2022/07/03 01:21:34;;;;;;;3.55;1.30;;;19.20;80.20;;;;;;5013874;28;20029;-75
2022/07/03 01:24:45;;;;;;;7.60;1.80;;;19.20;80.30;;;;;;5032178;28;20046;-76
2022/07/03 01:27:16;;;;;;;3.67;1.52;;;19.10;81.50;;;;;;5031472;28;20028;-75
2022/07/03 01:30:11;;;;;;;3.28;1.17;;;19.00;81.10;;;;;;5032729;28;20022;-76
2022/07/03 01:32:54;;;;;;;5.47;1.33;;;19.00;81.60;;;;;;5031723;28;20473;-76
2022/07/03 01:35:22;;;;;;;3.63;1.05;;;18.90;81.70;;;;;;5031432;28;20120;-76
2022/07/03 01:37:50;;;;;;;4.28;1.00;;;18.80;81.80;;;;;;5031774;28;20124;-76
2022/07/03 01:40:17;;;;;;;2.88;1.10;;;18.80;82.00;;;;;;5035032;28;20032;-75
2022/07/03 01:42:45;;;;;;;3.00;1.15;;;18.70;82.80;;;;;;5035105;28;20489;-76
2022/07/03 01:45:13;;;;;;;3.40;1.73;;;18.70;82.30;;;;;;5036213;28;20116;-75
2022/07/03 01:47:42;;;;;;;5.07;1.92;;;18.70;82.40;;;;;;5034888;28;20029;-75
2022/07/03 01:50:14;;;;;;;4.78;1.73;;;18.70;82.50;;;;;;5036137;28;20076;-75
2022/07/03 01:52:41;;;;;;;4.65;2.20;;;18.70;82.60;;;;;;5034800;28;20087;-75
2022/07/03 01:55:08;;;;;;;4.68;1.83;;;18.60;83.20;;;;;;5034269;28;20061;-75
2022/07/03 01:57:54;;;;;;;7.05;2.38;;;18.70;83.30;;;;;;5034385;28;20055;-75
2022/07/03 02:00:21;;;;;;;4.25;2.17;;;18.60;82.60;;;;;;5034141;28;20060;-75
2022/07/03 02:03:01;;;;;;;4.40;2.30;;;18.60;82.60;;;;;;5033567;28;20025;-75
2022/07/03 02:05:42;;;;;;;4.60;2.33;;;18.60;82.60;;;;;;5034329;28;20025;-76
2022/07/03 02:08:36;;;;;;;3.75;2.10;;;18.60;82.60;;;;;;5034586;28;20028;-75
2022/07/03 02:11:13;;;;;;;6.22;2.40;;;18.50;82.50;;;;;;5033311;28;20064;-75
2022/07/03 02:14:06;;;;;;;5.03;1.92;;;18.50;82.50;;;;;;5034439;28;20025;-75
2022/07/03 02:16:44;;;;;;;3.22;1.92;;;18.50;82.50;;;;;;5035554;28;20037;-76
2022/07/03 02:19:12;;;;;;;5.05;1.98;;;18.50;82.50;;;;;;5034132;28;20095;-76
2022/07/03 02:21:51;;;;;;;4.20;1.80;;;18.40;82.60;;;;;;5034350;28;20024;-75
2022/07/03 02:24:22;;;;;;;4.63;2.33;;;18.40;82.70;;;;;;5035370;28;20046;-76
2022/07/03 02:26:55;;;;;;;4.07;2.22;;;18.40;82.80;;;;;;5034264;28;20493;-76
2022/07/03 02:29:31;;;;;;;3.63;2.00;;;18.40;83.10;;;;;;5035490;28;20026;-76
2022/07/03 02:32:00;;;;;;;4.85;2.00;;;18.30;83.20;;;;;;5035458;28;20072;-77
2022/07/03 02:34:29;;;;;;;5.15;2.35;;;18.30;83.30;;;;;;5017464;28;20037;-74
2022/07/03 02:37:15;;;;;;;4.38;2.20;;;18.30;83.40;;;;;;5035316;28;20041;-76
2022/07/03 02:40:02;;;;;;;9.43;1.95;;;18.30;83.50;;;;;;5033963;28;20025;-74
2022/07/03 02:42:51;;;;;;;5.00;2.25;;;18.20;83.40;;;;;;5033847;28;20071;-77
2022/07/03 02:45:19;;;;;;;3.60;2.03;;;18.20;83.40;;;;;;5033727;28;20397;-76
2022/07/03 02:48:02;;;;;;;5.28;2.10;;;18.20;83.40;;;;;;5033904;28;20028;-76
2022/07/03 02:50:28;;;;;;;4.25;2.03;;;18.20;83.40;;;;;;5034425;28;20053;-76
2022/07/03 02:53:27;;;;;;;3.70;1.60;;;18.20;83.40;;;;;;5034009;28;20068;-77
2022/07/03 02:56:14;;;;;;;5.28;2.00;;;18.20;83.60;;;;;;5034927;28;20430;-76
2022/07/03 02:59:24;;;;;;;5.40;1.75;;;18.20;83.80;;;;;;5034916;28;20036;-76
2022/07/03 03:02:03;;;;;;;3.45;1.77;;;18.10;84.00;;;;;;5033494;28;20440;-76
2022/07/03 03:04:31;;;;;;;4.63;1.60;;;18.00;84.00;;;;;;5034767;28;20108;-76
2022/07/03 03:07:17;;;;;;;3.60;1.63;;;18.00;84.00;;;;;;5034784;28;20036;-76
2022/07/03 03:09:43;;;;;;;4.75;1.50;;;18.00;83.90;;;;;;5034779;28;20130;-76
2022/07/03 03:12:10;;;;;;;4.40;1.58;;;18.00;83.80;;;;;;5034814;28;20049;-76
2022/07/03 03:14:42;;;;;;;4.97;1.60;;;18.00;83.90;;;;;;5034568;28;20033;-76
2022/07/03 03:17:09;;;;;;;5.60;2.70;;;17.90;83.90;;;;;;5034638;28;20126;-76
2022/07/03 03:19:43;;;;;;;4.18;1.75;;;17.90;84.00;;;;;;5034490;28;20037;-76
2022/07/03 03:22:17;;;;;;;6.05;2.08;;;17.90;84.20;;;;;;5033225;28;20040;-76
2022/07/03 03:24:44;;;;;;;3.95;2.35;;;17.90;84.40;;;;;;5032836;28;20083;-76
2022/07/03 03:27:10;;;;;;;5.28;2.30;;;17.90;84.50;;;;;;5049606;28;20028;-76
2022/07/03 03:29:36;;;;;;;5.03;2.90;;;17.80;84.60;;;;;;5016537;28;20029;-75
2022/07/03 03:32:03;;;;;;;6.15;2.42;;;17.80;84.80;;;;;;5034292;28;20060;-76
2022/07/03 03:34:31;;;;;;;6.00;2.40;;;17.80;85.00;;;;;;5032981;28;20022;-76
2022/07/03 03:36:57;;;;;;;4.72;2.85;;;17.80;85.20;;;;;;5016666;28;20021;-76
2022/07/03 03:39:22;;;;;;;4.18;2.50;;;17.80;85.50;;;;;;5032868;28;20030;-76
2022/07/03 03:41:49;;;;;;;5.78;2.50;;;17.80;85.70;;;;;;5034109;28;20033;-76
2022/07/03 03:44:14;;;;;;;3.95;2.30;;;17.70;85.80;;;;;;5032648;28;20120;-76
2022/07/03 03:46:40;;;;;;;7.07;2.80;;;17.70;86.00;;;;;;5032855;28;20164;-76
2022/07/03 03:49:06;;;;;;;6.18;2.65;;;17.70;86.10;;;;;;5016492;28;20032;-76
2022/07/03 03:51:31;;;;;;;4.93;2.70;;;17.70;86.30;;;;;;5032776;28;20509;-76
2022/07/03 03:53:57;;;;;;;6.32;3.13;;;17.80;86.50;;;;;;5032807;28;20022;-76
2022/07/03 03:56:24;;;;;;;4.82;2.90;;;17.70;86.50;;;;;;5032532;28;20036;-76
2022/07/03 03:58:50;;;;;;;5.38;2.53;;;17.70;86.70;;;;;;5032504;28;20489;-76
2022/07/03 04:01:15;;;;;;;8.65;2.95;;;17.70;86.70;;;;;;5032194;28;20034;-76
2022/07/03 04:03:41;;;;;;;6.30;2.97;;;17.70;86.80;;;;;;5032171;28;20124;-76
2022/07/03 04:06:07;;;;;;;5.60;2.92;;;17.70;87.00;;;;;;5032256;28;20113;-76
2022/07/03 04:08:33;;;;;;;6.22;3.22;;;17.80;87.20;;;;;;5049028;28;20029;-76
2022/07/03 04:10:59;;;;;;;6.78;3.10;;;17.80;87.20;;;;;;5032383;28;20117;-76
2022/07/03 04:13:25;;;;;;;6.93;2.88;;;17.80;87.30;;;;;;5033659;28;20040;-76
2022/07/03 04:15:53;;;;;;;7.63;2.90;;;17.80;87.40;;;;;;5032212;28;20037;-76
2022/07/03 04:18:19;;;;;;;5.13;2.95;;;17.80;87.60;;;;;;5032087;28;20056;-76
2022/07/03 04:20:45;;;;;;;7.53;3.22;;;17.80;87.70;;;;;;5032172;28;20485;-76
2022/07/03 04:23:11;;;;;;;4.32;2.90;;;17.80;87.80;;;;;;5015665;28;20041;-77
2022/07/03 04:25:36;;;;;;;5.07;2.47;;;17.70;88.00;;;;;;5032154;28;20438;-76
2022/07/03 04:28:02;;;;;;;7.47;3.40;;;17.80;88.10;;;;;;5033352;28;20100;-76
2022/07/03 04:30:28;;;;;;;6.15;2.70;;;17.70;88.20;;;;;;5015609;28;20479;-75
2022/07/03 04:32:53;;;;;;;7.43;3.08;;;17.80;88.40;;;;;;5015570;28;20025;-76
2022/07/03 04:35:19;;;;;;;7.82;3.03;;;17.80;88.60;;;;;;5015408;28;20030;-76
2022/07/03 04:37:45;;;;;;;5.63;3.55;;;17.70;88.60;;;;;;5031808;28;20026;-76
2022/07/03 04:40:12;;;;;;;4.28;2.85;;;17.70;88.80;;;;;;5031941;28;20172;-76
2022/07/03 04:42:38;;;;;;;6.30;2.85;;;17.70;89.00;;;;;;5031926;28;20033;-76
2022/07/03 04:45:04;;;;;;;5.93;3.20;;;17.70;89.10;;;;;;5031761;28;20029;-76
2022/07/03 04:47:30;;;;;;;5.10;2.60;;;17.70;89.20;;;;;;5033134;28;20037;-76
2022/07/03 04:49:56;;;;;;;4.95;2.40;;;17.70;89.30;;;;;;5031757;28;20021;-76
2022/07/03 04:52:22;;;;;;;3.85;2.42;;;17.70;89.50;;;;;;5015449;28;20026;-75
2022/07/03 04:54:48;;;;;;;6.10;2.70;;;17.70;89.60;;;;;;5031863;28;20025;-76
2022/07/03 04:57:13;;;;;;;7.35;2.67;;;17.60;90.00;;;;;;5031859;28;20440;-76
2022/07/03 04:59:39;;;;;;;4.78;2.50;;;17.70;89.60;;;;;;5033261;28;20037;-76
2022/07/03 05:02:05;;;;;;;7.13;2.90;;;17.70;89.70;;;;;;5033080;28;20025;-76
2022/07/03 05:04:30;;;;;;;4.75;2.15;;;17.80;89.60;;;;;;5031736;28;20029;-76
2022/07/03 05:06:56;;;;;;;5.80;2.67;;;17.80;89.40;;;;;;5031772;28;20116;-76
2022/07/03 05:09:22;;;;;;;5.28;2.60;;;17.90;89.40;;;;;;5031752;28;20036;-76
2022/07/03 05:11:47;;;;;;;5.13;2.25;;;18.00;89.40;;;;;;5031696;28;20032;-75
2022/07/03 05:14:13;;;;;;;5.47;2.03;;;18.00;89.20;;;;;;5017889;28;20546;-76
2022/07/03 05:16:39;;;;;;;4.75;2.05;;;18.10;89.10;;;;;;5018998;28;20026;-76
2022/07/03 05:19:05;;;;;;;3.83;2.10;;;18.00;88.80;;;;;;5018990;28;20499;-76
2022/07/03 05:21:31;;;;;;;5.75;2.00;;;18.20;88.80;;;;;;5035464;28;20135;-76
2022/07/03 05:23:57;;;;;;;4.90;1.98;;;18.20;88.50;;;;;;5036555;28;20045;-76
2022/07/03 05:26:22;;;;;;;5.05;2.13;;;18.30;88.30;;;;;;5035200;28;20461;-75
2022/07/03 05:28:48;;;;;;;5.32;1.80;;;18.30;88.30;;;;;;5018911;28;20075;-76
2022/07/03 05:31:14;;;;;;;4.32;1.80;;;18.30;88.00;;;;;;5036519;28;20075;-76
2022/07/03 05:33:40;;;;;;;4.15;2.00;;;18.40;87.80;;;;;;5035111;28;20040;-76
2022/07/03 05:36:05;;;;;;;5.10;2.00;;;18.40;87.60;;;;;;5018709;28;20057;-76
2022/07/03 05:41:16;;;;;;;5.10;1.80;;;18.40;87.20;;;;;;5036905;28;20087;-76
2022/07/03 05:43:42;;;;;;;4.53;1.52;;;18.40;87.40;;;;;;5034969;28;20036;-75
2022/07/03 05:46:07;;;;;;;3.08;1.30;;;18.40;87.00;;;;;;5036106;28;20034;-75
2022/07/03 05:48:33;;;;;;;4.25;1.35;;;18.50;86.90;;;;;;5018473;28;20438;-75
2022/07/03 05:50:59;;;;;;;3.25;1.33;;;18.50;86.80;;;;;;5018604;28;20034;-76
2022/07/03 05:53:24;;;;;;;3.90;1.67;;;18.50;86.70;;;;;;5018453;28;20108;-76
2022/07/03 05:55:50;;;;;;;3.92;1.40;;;18.50;87.20;;;;;;5018226;28;20090;-75
2022/07/03 05:58:16;;;;;;;2.88;1.27;;;18.50;86.60;;;;;;5034976;28;20026;-75
2022/07/03 06:00:42;;;;;;;3.15;1.50;;;18.50;86.60;;;;;;5034815;28;20488;-76
2022/07/03 06:03:08;;;;;;;4.63;1.27;;;18.60;86.60;;;;;;5034772;28;20108;-76
2022/07/03 06:05:34;;;;;;;5.22;1.30;;;18.60;86.60;;;;;;5034512;28;20599;-76
2022/07/03 06:08:00;;;;;;;2.88;0.88;;;18.70;86.60;;;;;;5034803;28;20116;-76
2022/07/03 06:10:27;;;;;;;3.35;1.08;;;18.70;86.50;;;;;;5035937;28;20476;-76
2022/07/03 06:12:53;;;;;;;5.35;1.30;;;18.70;86.40;;;;;;5018067;28;20033;-76
2022/07/03 06:15:19;;;;;;;2.35;0.90;;;18.70;86.30;;;;;;5051007;28;20021;-76
2022/07/03 06:17:45;;;;;;;5.72;1.10;;;18.80;86.30;;;;;;5034458;28;20477;-75
2022/07/03 06:20:10;;;;;;;2.33;0.90;;;18.80;86.30;;;;;;5034421;28;20033;-75
2022/07/03 06:22:37;;;;;;;5.65;1.00;;;18.80;86.30;;;;;;5034261;28;20117;-76
2022/07/03 06:25:03;;;;;;;4.22;0.95;;;18.80;86.20;;;;;;5034326;28;20084;-76
2022/07/03 06:27:28;;;;;;;4.93;0.95;;;18.80;86.30;;;;;;5035519;28;20057;-76
2022/07/03 06:29:54;;;;;;;3.90;1.13;;;18.80;86.90;;;;;;5017576;28;20033;-76
2022/07/03 06:32:20;;;;;;;3.22;0.80;;;18.80;86.20;;;;;;5017682;28;20564;-76
2022/07/03 06:34:46;;;;;;;4.68;0.82;;;18.90;86.30;;;;;;5034242;28;20092;-75
2022/07/03 06:37:12;;;;;;;2.70;0.77;;;18.90;86.30;;;;;;5017658;28;20033;-76
2022/07/03 06:39:38;;;;;;;1.67;0.80;;;18.90;86.30;;;;;;5034140;28;20040;-76
2022/07/03 06:42:04;;;;;;;5.32;1.10;;;18.90;86.30;;;;;;5033927;28;20026;-75
2022/07/03 06:44:29;;;;;;;3.10;0.90;;;19.00;86.30;;;;;;5035012;28;20079;-76
2022/07/03 06:46:56;;;;;;;5.47;0.90;;;19.00;86.20;;;;;;5017447;28;20025;-76
2022/07/03 06:49:21;;;;;;;1.98;0.85;;;19.10;86.10;;;;;;5017327;28;20032;-76
2022/07/03 06:51:47;;;;;;;4.45;0.88;;;19.10;86.00;;;;;;5034102;28;20034;-75
2022/07/03 06:54:13;;;;;;;2.92;0.70;;;19.10;85.80;;;;;;5033818;28;20033;-76
2022/07/03 06:56:39;;;;;;;3.55;0.68;;;19.10;85.60;;;;;;5035120;28;20036;-76
2022/07/03 06:59:04;;;;;;;3.75;0.73;;;19.20;85.60;;;;;;5033680;28;20043;-76
2022/07/03 07:01:30;;;;;;;4.53;1.00;;;19.20;85.60;;;;;;5050252;28;20084;-76
2022/07/03 07:03:56;;;;;;;1.85;0.70;;;19.20;85.50;;;;;;5017077;28;20026;-76
2022/07/03 07:06:22;;;;;;;3.80;0.65;;;19.20;86.00;;;;;;5033585;28;20189;-75
2022/07/03 07:08:48;;;;;;;2.47;0.70;;;19.30;85.40;;;;;;5033503;28;20121;-76
2022/07/03 07:11:14;;;;;;;4.53;0.80;;;19.40;85.30;;;;;;5017003;28;20022;-75
2022/07/03 07:13:40;;;;;;;2.63;0.68;;;19.40;85.20;;;;;;5033479;28;20037;-75
2022/07/03 07:16:06;;;;;;;2.42;0.80;;;19.40;85.30;;;;;;5034687;28;20029;-76
2022/07/03 07:18:31;;;;;;;1.85;0.63;;;19.40;85.20;;;;;;5033262;28;20366;-76
2022/07/03 07:20:57;;;;;;;4.03;0.68;;;19.50;85.20;;;;;;5033285;28;20029;-76
2022/07/03 07:23:23;;;;;;;4.45;0.60;;;19.50;85.10;;;;;;5033332;28;20037;-76
2022/07/03 07:25:48;;;;;;;2.92;0.80;;;19.60;85.00;;;;;;5016551;28;20128;-76
2022/07/03 07:28:14;;;;;;;5.55;0.80;;;19.60;84.70;;;;;;5033199;28;20052;-76
2022/07/03 07:30:40;;;;;;;5.82;0.80;;;19.60;84.50;;;;;;5033140;28;20033;-76
2022/07/03 07:33:09;;;;;;;4.40;0.60;;;19.60;84.50;;;;;;5016526;28;20363;-75
2022/07/03 07:35:35;;;;;;;3.70;0.90;;;19.60;84.30;;;;;;5032652;28;20109;-75
2022/07/03 07:38:01;;;;;;;4.65;0.80;;;19.60;84.30;;;;;;5032691;28;20029;-76
2022/07/03 07:40:26;;;;;;;3.38;0.50;;;19.70;84.20;;;;;;5034089;28;20057;-76
2022/07/03 07:42:52;;;;;;;2.38;0.40;;;19.80;84.20;;;;;;5032844;28;20025;-75
2022/07/03 07:45:18;;;;;;;4.00;0.40;;;19.80;84.30;;;;;;5016170;28;20040;-77
2022/07/03 07:47:44;;;;;;;2.65;0.50;;;19.80;83.40;;;;;;5032642;28;20017;-76
2022/07/03 07:50:10;;;;;;;2.58;0.43;;;19.80;83.10;;;;;;5033037;28;20034;-76
2022/07/03 07:52:36;;;;;;;3.05;0.55;;;19.80;83.00;;;;;;5032614;28;20098;-76
2022/07/03 07:55:03;;;;;;;4.63;0.50;;;19.90;83.20;;;;;;5016164;28;20065;-76
2022/07/03 07:57:36;;;;;;;3.00;0.50;;;20.00;83.30;;;;;;5032444;28;20033;-76
2022/07/03 08:00:21;;;;;;;4.10;0.60;;;20.00;83.10;;;;;;5033687;28;20057;-76
2022/07/03 08:05:38;;;;;;;2.05;0.60;;;20.10;82.80;;;;;;5033735;28;20448;-75
2022/07/03 08:08:08;;;;;;;3.80;0.70;;;20.20;82.70;;;;;;5032270;28;20029;-76
2022/07/03 08:10:36;;;;;;;4.10;0.60;;;20.20;82.50;;;;;;5033606;28;20025;-75
2022/07/03 08:13:02;;;;;;;5.40;0.80;;;20.20;81.90;;;;;;5032175;28;20017;-75
2022/07/03 08:15:27;;;;;;;2.90;0.65;;;20.20;81.60;;;;;;5032160;28;20029;-75
2022/07/03 08:17:53;;;;;;;1.20;0.52;;;20.30;81.10;;;;;;5033264;28;20120;-76
2022/07/03 08:20:21;;;;;;;3.28;0.60;;;20.30;81.00;;;;;;5032255;28;20072;-76
2022/07/03 08:22:47;;;;;;;3.03;0.45;;;20.30;81.00;;;;;;5016053;28;20087;-76
2022/07/03 08:25:13;;;;;;;1.20;0.30;;;20.40;81.10;;;;;;5015043;28;20485;-77
2022/07/03 08:27:38;;;;;;;5.32;0.50;;;20.40;81.10;;;;;;5031958;28;20026;-77
2022/07/03 08:30:05;;;;;;;1.40;0.40;;;20.50;80.90;;;;;;5031857;28;20033;-76
2022/07/03 08:32:30;;;;;;;2.58;0.40;;;20.50;80.40;;;;;;5033365;28;20029;-76
2022/07/03 08:34:56;;;;;;;1.42;0.38;;;20.60;79.90;;;;;;5015356;28;20033;-75
2022/07/03 08:37:22;;;;;;;1.35;0.45;;;20.60;79.20;;;;;;5015367;28;20034;-77
2022/07/03 08:39:47;;;;;;;2.00;0.40;;;20.60;78.40;;;;;;5015449;28;20033;-76
2022/07/03 08:42:15;;;;;;;5.55;0.40;;;20.60;77.40;;;;;;5033204;28;20065;-76
2022/07/03 08:44:43;;;;;;;2.28;0.40;;;20.60;77.10;;;;;;5031708;28;20101;-76
2022/07/03 08:47:12;;;;;;;1.15;0.40;;;20.70;77.20;;;;;;5032981;28;20040;-76
2022/07/03 08:49:41;;;;;;;1.42;0.40;;;20.70;76.90;;;;;;5033017;28;20106;-76
2022/07/03 08:52:09;;;;;;;2.85;0.40;;;20.80;76.20;;;;;;5031759;28;20030;-76
2022/07/03 08:54:34;;;;;;;2.40;0.40;;;20.80;75.60;;;;;;5031880;28;20049;-75
2022/07/03 08:57:01;;;;;;;3.58;0.85;;;20.90;75.40;;;;;;5031747;28;20427;-76
2022/07/03 08:59:41;;;;;;;1.60;0.40;;;20.90;75.00;;;;;;5033163;28;20032;-76
2022/07/03 09:02:07;;;;;;;1.92;0.28;;;21.00;75.10;;;;;;5031645;28;20033;-76
2022/07/03 09:04:33;;;;;;;2.97;0.40;;;20.90;75.00;;;;;;5031461;28;20038;-76
2022/07/03 09:07:00;;;;;;;5.47;0.40;;;21.00;75.00;;;;;;5030687;28;20033;-76
2022/07/03 09:09:26;;;;;;;0.88;0.22;;;21.10;74.70;;;;;;5025021;28;20108;-76
2022/07/03 09:11:52;;;;;;;3.67;0.80;;;21.10;74.30;;;;;;5013007;28;20471;-77
2022/07/03 09:14:18;;;;;;;3.45;0.40;;;21.20;74.10;;;;;;5011808;28;20033;-77
2022/07/03 09:16:45;;;;;;;2.78;0.52;;;21.20;73.80;;;;;;5013140;28;20049;-77
2022/07/03 09:19:10;;;;;;;2.60;0.40;;;21.30;73.60;;;;;;5011438;28;20033;-77
2022/07/03 09:21:37;;;;;;;1.13;0.40;;;21.40;73.60;;;;;;5011887;28;20026;-76
2022/07/03 09:24:06;;;;;;;2.40;0.40;;;21.40;74.00;;;;;;5015305;28;20037;-76
2022/07/03 09:26:33;;;;;;;2.90;0.40;;;21.50;73.50;;;;;;5020392;28;20482;-76
2022/07/03 09:28:59;;;;;;;2.08;0.40;;;21.60;73.60;;;;;;5021042;28;20038;-76
2022/07/03 09:31:27;;;;;;;1.45;0.45;;;21.60;73.50;;;;;;5011280;28;20032;-76
2022/07/03 09:33:58;;;;;;;1.60;0.40;;;21.70;73.60;;;;;;5020477;28;20056;-76
2022/07/03 09:36:48;;;;;;;2.45;0.40;;;21.70;73.50;;;;;;5012933;28;20080;-76
2022/07/03 09:39:19;;;;;;;1.85;0.40;;;21.80;73.60;;;;;;5011881;28;20030;-76
2022/07/03 09:41:57;;;;;;;3.30;0.63;;;21.80;73.40;;;;;;5024400;28;20470;-76
2022/07/03 09:44:31;;;;;;;2.75;0.50;;;21.90;73.30;;;;;;5026379;28;20496;-76
2022/07/03 09:47:27;;;;;;;1.70;0.43;;;22.00;73.10;;;;;;5015339;28;20018;-76
2022/07/03 09:49:58;;;;;;;2.33;0.50;;;22.00;73.20;;;;;;5016342;28;20088;-76
2022/07/03 09:52:42;;;;;;;3.17;0.50;;;22.10;73.20;;;;;;5011487;28;20014;-77
2022/07/03 09:55:10;;;;;;;1.77;0.40;;;22.10;73.30;;;;;;5016130;28;20029;-76
2022/07/03 09:57:39;;;;;;;1.80;0.40;;;22.10;73.20;;;;;;5030018;28;20036;-76
2022/07/03 10:00:13;;;;;;;2.13;0.55;;;22.20;73.20;;;;;;5030768;28;20064;-76
2022/07/03 10:02:54;;;;;;;1.75;0.50;;;22.30;73.20;;;;;;5032524;28;20477;-77
2022/07/03 10:05:25;;;;;;;2.80;0.40;;;22.40;73.00;;;;;;5034307;28;20117;-77
2022/07/03 10:08:00;;;;;;;2.25;0.40;;;22.40;72.90;;;;;;5035926;28;20056;-76
2022/07/03 10:10:29;;;;;;;2.45;0.40;;;22.50;72.60;;;;;;5035632;28;20022;-76
2022/07/03 10:12:55;;;;;;;1.60;0.40;;;22.60;72.30;;;;;;5017290;28;20029;-77
2022/07/03 10:15:23;;;;;;;2.70;0.45;;;22.60;72.00;;;;;;5034525;28;20029;-76
2022/07/03 10:17:51;;;;;;;2.35;0.40;;;22.60;71.20;;;;;;5035258;28;20075;-76
2022/07/03 10:20:37;;;;;;;3.15;0.75;;;22.60;71.10;;;;;;5034315;28;20021;-76
2022/07/03 10:23:03;;;;;;;1.60;0.30;;;22.70;71.00;;;;;;5033681;28;20038;-77
2022/07/03 10:25:30;;;;;;;2.60;0.30;;;22.70;70.80;;;;;;5035311;28;20056;-77
2022/07/03 10:27:56;;;;;;;1.42;0.30;;;22.70;70.50;;;;;;5031072;28;20040;-76
2022/07/03 10:30:24;;;;;;;2.00;0.40;;;22.70;70.20;;;;;;5014568;28;20466;-76
2022/07/03 10:32:52;;;;;;;1.27;0.30;;;22.80;70.00;;;;;;5015572;28;20087;-76
2022/07/03 10:35:26;;;;;;;1.92;0.30;;;22.80;69.70;;;;;;5015675;28;20160;-76
2022/07/03 10:37:56;;;;;;;;;;;22.90;69.70;;;;;;5014886;28;20030;-76
2022/07/03 10:46:11;;;;;;;1.00;0.20;;;23.20;69.10;;;;;;5035062;28;20544;-85
2022/07/03 10:48:50;;;;;;;1.40;0.40;;;23.40;68.90;;;;;;5033930;28;20032;-83
2022/07/03 10:51:16;;;;;;;2.30;0.50;;;23.60;68.20;;;;;;5033869;28;20032;-85
2022/07/03 10:53:42;;;;;;;3.33;0.32;;;23.70;68.00;;;;;;5033949;28;20481;-84
2022/07/03 10:56:07;;;;;;;3.08;0.40;;;23.80;67.90;;;;;;5017310;28;20025;-83
2022/07/03 10:58:56;;;;;;;1.30;0.40;;;24.00;67.80;;;;;;5033851;28;20490;-84
2022/07/03 11:01:34;;;;;;;1.67;0.40;;;24.10;67.10;;;;;;5034857;28;20064;-84
2022/07/03 11:04:01;;;;;;;3.00;0.40;;;24.10;66.90;;;;;;5017579;28;20029;-85
2022/07/03 11:06:44;;;;;;;1.83;0.30;;;24.20;66.80;;;;;;5034846;28;20033;-86
2022/07/03 11:09:14;;;;;;;2.10;0.22;;;24.30;66.50;;;;;;5033455;28;20040;-85
2022/07/03 11:11:56;;;;;;;2.38;0.30;;;24.40;66.10;;;;;;5030821;28;20018;-85
2022/07/03 11:14:23;;;;;;;2.40;0.30;;;24.50;65.50;;;;;;5016931;28;20117;-81
2022/07/03 11:16:49;;;;;;;4.70;0.40;;;24.60;64.70;;;;;;5034612;28;20057;-86
2022/07/03 11:19:24;;;;;;;1.73;0.20;;;24.80;64.30;;;;;;5020688;28;20053;-86
2022/07/03 11:21:58;;;;;;;1.95;0.40;;;25.00;63.90;;;;;;4998406;28;20029;-86
2022/07/03 11:24:28;;;;;;;1.23;0.30;;;25.10;63.30;;;;;;5024103;28;20497;-85
2022/07/03 11:27:17;;;;;;;0.93;0.20;;;25.10;62.60;;;;;;5029027;28;20376;-86
2022/07/03 11:29:58;;;;;;;2.15;0.20;;;25.20;62.40;;;;;;5031782;28;20029;-84
2022/07/03 11:32:48;;;;;;;0.85;0.20;;;25.30;62.70;;;;;;5032643;28;20100;-83
2022/07/03 11:35:53;;;;;;;2.20;0.30;;;25.40;62.60;;;;;;5033959;28;20069;-84
2022/07/03 11:38:26;;;;;;;1.27;0.30;;;25.40;62.20;;;;;;5034561;28;20072;-82
2022/07/03 11:40:54;;;;;;;1.00;0.20;;;25.50;62.40;;;;;;5034246;28;20096;-83
2022/07/03 11:43:20;;;;;;;0.35;0.10;;;25.60;61.00;;;;;;5034145;28;20048;-84
2022/07/03 11:45:49;;;;;;;2.63;0.20;;;25.70;60.00;;;;;;5033995;28;20386;-84
2022/07/03 11:48:23;;;;;;;1.02;0.20;;;25.80;59.70;;;;;;5032741;28;20040;-83
2022/07/03 11:50:49;;;;;;;1.63;0.30;;;25.90;58.40;;;;;;5016017;28;20022;-83
2022/07/03 11:53:20;;;;;;;1.65;0.38;;;26.00;57.90;;;;;;5033923;28;20140;-83
2022/07/03 11:56:01;;;;;;;2.03;0.30;;;26.20;57.90;;;;;;5032638;28;20095;-85
2022/07/03 11:58:43;;;;;;;2.63;0.30;;;26.40;57.60;;;;;;5033898;28;20051;-83
2022/07/03 12:01:10;;;;;;;2.47;0.30;;;26.60;57.50;;;;;;5033741;28;20053;-83
2022/07/03 12:03:36;;;;;;;0.88;0.20;;;26.80;57.10;;;;;;5033647;28;20100;-83
2022/07/03 12:06:02;;;;;;;0.82;0.30;;;27.10;56.70;;;;;;5032354;28;20128;-83
2022/07/03 12:08:28;;;;;;;1.77;0.32;;;27.20;56.40;;;;;;5015889;28;20033;-84
2022/07/03 12:10:59;;;;;;;2.50;0.40;;;27.30;56.40;;;;;;5032355;28;20057;-83
2022/07/03 12:13:25;;;;;;;1.60;0.30;;;27.40;56.10;;;;;;5032275;28;20049;-84
2022/07/03 12:15:51;;;;;;;0.55;0.20;;;27.50;55.80;;;;;;5032263;28;20060;-86
2022/07/03 12:18:16;;;;;;;0.75;0.13;;;27.50;55.50;;;;;;5032142;28;20029;-84
2022/07/03 12:20:42;;;;;;;0.93;0.32;;;27.60;54.90;;;;;;5032313;28;20033;-83
2022/07/03 12:23:09;;;;;;;2.30;0.30;;;27.60;54.50;;;;;;5031288;28;20504;-83
2022/07/03 12:25:39;;;;;;;0.73;0.20;;;27.50;54.00;;;;;;5031876;28;20053;-84
2022/07/03 12:28:06;;;;;;;2.38;0.28;;;27.50;54.00;;;;;;5031929;28;20017;-84
2022/07/03 12:30:32;;;;;;;1.05;0.20;;;27.70;53.90;;;;;;5015555;28;20484;-84
2022/07/03 12:32:58;;;;;;;1.88;0.20;;;27.80;53.60;;;;;;5031934;28;20022;-84
2022/07/03 12:35:25;;;;;;;0.98;0.30;;;28.00;53.50;;;;;;5015567;28;20033;-81
2022/07/03 12:37:50;;;;;;;2.53;0.30;;;28.20;53.00;;;;;;5031910;28;20064;-84
2022/07/03 12:40:17;;;;;;;0.80;0.20;;;28.40;52.50;;;;;;5031964;28;20028;-84
2022/07/03 12:42:48;;;;;;;1.65;0.20;;;28.60;52.40;;;;;;5015576;28;20028;-83
2022/07/03 12:45:16;;;;;;;1.10;0.30;;;28.80;52.10;;;;;;5032964;28;20077;-83
2022/07/03 12:47:42;;;;;;;1.55;0.20;;;29.00;52.00;;;;;;5015444;28;20022;-83
2022/07/03 12:50:08;;;;;;;3.88;0.20;;;29.20;51.70;;;;;;5033125;28;20037;-84
2022/07/03 12:52:55;;;;;;;1.48;0.30;;;29.40;51.60;;;;;;5031765;28;20385;-82
2022/07/03 12:55:28;;;;;;;0.93;0.20;;;29.70;50.80;;;;;;5033016;28;20022;-83
2022/07/03 13:01:02;;;;;;;1.30;0.20;;;29.80;49.90;;;;;;5033250;28;20102;-85
2022/07/03 13:03:36;;;;;;;1.85;0.32;;;29.90;50.70;;;;;;5015457;28;20033;-84
2022/07/03 13:06:02;;;;;;;0.55;0.15;;;29.80;49.60;;;;;;5032855;28;20450;-84
2022/07/03 13:08:28;;;;;;;2.05;0.30;;;29.80;49.50;;;;;;5031839;28;20048;-85
2022/07/03 13:10:58;;;;;;;1.63;0.25;;;29.60;49.30;;;;;;5031555;28;20026;-80
2022/07/03 13:13:24;;;;;;;2.58;0.30;;;29.40;48.90;;;;;;5015601;28;20026;-81
2022/07/03 13:15:50;;;;;;;1.73;0.30;;;29.10;48.30;;;;;;5031595;28;20524;-83